Time;durP1;ratioP1;P1;durP2;ratioP2;P2;SDS_P1;SDS_P2;PMS_P1;PMS_P2;Temp;Humidity;BMP_temperature;BMP_pressure;BME280_temperature;BME280_humidity;BME280_pressure;Samples;Min_cycle;Max_cycle;Signal;HPM_P1;HPM_P2
2022/06/08 00:01:37;;;;;;;0.75;0.55;;;19.80;99.90;;;;;;5052166;28;20053;-76
2022/06/08 00:04:06;;;;;;;1.33;1.23;;;19.70;99.90;;;;;;5043976;28;20456;-76
2022/06/08 00:06:33;;;;;;;1.20;1.13;;;19.80;99.90;;;;;;5050947;28;20099;-76
2022/06/08 00:09:00;;;;;;;0.30;0.30;;;19.70;99.90;;;;;;5053694;28;20053;-75
2022/06/08 00:11:28;;;;;;;1.95;0.95;;;19.70;99.90;;;;;;5057795;28;20033;-75
2022/06/08 00:13:55;;;;;;;2.17;1.88;;;19.60;99.90;;;;;;5036821;28;20115;-76
2022/06/08 00:16:24;;;;;;;0.00;0.00;;;19.70;99.90;;;;;;5034980;28;20041;-75
2022/06/08 00:18:51;;;;;;;1.42;1.33;;;19.70;99.90;;;;;;5036374;28;20045;-76
2022/06/08 00:21:19;;;;;;;1.95;0.73;;;19.60;99.90;;;;;;5035876;28;20075;-75
2022/06/08 00:23:47;;;;;;;0.38;0.38;;;19.70;99.90;;;;;;5035676;28;20041;-75
2022/06/08 00:26:14;;;;;;;0.10;0.10;;;19.60;99.90;;;;;;5034519;28;20041;-75
2022/06/08 00:28:41;;;;;;;0.25;0.25;;;19.60;99.90;;;;;;5035707;28;20041;-76
2022/06/08 00:31:09;;;;;;;2.90;0.77;;;19.50;99.90;;;;;;5034379;28;20455;-75
2022/06/08 00:33:40;;;;;;;2.78;1.45;;;19.50;99.90;;;;;;5035111;28;20045;-76
2022/06/08 00:36:08;;;;;;;1.63;1.15;;;19.50;99.90;;;;;;5035028;28;20053;-76
2022/06/08 00:38:36;;;;;;;1.42;1.33;;;19.50;99.90;;;;;;5035836;28;20088;-76
2022/06/08 00:41:26;;;;;;;3.40;2.33;;;19.50;99.90;;;;;;5035435;28;20037;-75
2022/06/08 00:43:53;;;;;;;2.10;1.48;;;19.40;99.90;;;;;;5033526;28;20049;-75
2022/06/08 00:46:21;;;;;;;0.82;0.82;;;19.40;99.90;;;;;;5034200;28;20446;-76
2022/06/08 00:48:54;;;;;;;0.60;0.60;;;19.50;99.90;;;;;;5037245;28;20488;-76
2022/06/08 00:51:21;;;;;;;0.38;0.38;;;19.50;99.90;;;;;;5037279;28;20095;-76
2022/06/08 00:53:54;;;;;;;0.20;0.20;;;19.50;99.90;;;;;;5043048;28;20048;-76
2022/06/08 00:56:27;;;;;;;1.33;0.82;;;19.60;99.90;;;;;;5041392;28;20033;-75
2022/06/08 00:58:56;;;;;;;0.70;0.70;;;19.50;99.90;;;;;;5037152;28;20096;-76
2022/06/08 01:01:24;;;;;;;0.40;0.40;;;19.30;99.90;;;;;;5037798;28;20046;-76
2022/06/08 01:04:08;;;;;;;0.10;0.10;;;19.30;99.90;;;;;;5039239;28;20041;-76
2022/06/08 01:06:36;;;;;;;1.02;0.85;;;19.30;99.90;;;;;;5042670;28;20048;-77
2022/06/08 01:09:04;;;;;;;0.32;0.32;;;19.30;99.90;;;;;;5046508;28;20053;-76
2022/06/08 01:11:38;;;;;;;1.95;1.45;;;19.30;99.90;;;;;;5047073;28;20052;-76
2022/06/08 01:14:11;;;;;;;1.30;0.98;;;19.30;99.90;;;;;;5046576;28;20080;-76
2022/06/08 01:16:40;;;;;;;0.32;0.32;;;19.30;99.90;;;;;;5053708;28;20072;-76
2022/06/08 01:19:11;;;;;;;0.73;0.40;;;19.30;99.90;;;;;;5054239;28;20053;-75
2022/06/08 01:21:52;;;;;;;0.22;0.22;;;19.20;99.90;;;;;;5053866;28;20113;-76
2022/06/08 01:24:27;;;;;;;1.23;1.13;;;19.20;99.90;;;;;;5052195;28;20055;-77
2022/06/08 01:27:20;;;;;;;0.35;0.28;;;19.20;99.90;;;;;;5053645;28;20068;-76
2022/06/08 01:29:57;;;;;;;1.23;0.52;;;19.20;99.90;;;;;;5034253;28;20080;-75
2022/06/08 01:32:28;;;;;;;;;;;19.20;99.90;;;;;;5052482;28;20071;-76
2022/06/08 01:35:20;;;;;;;0.45;0.45;;;19.20;99.90;;;;;;5049056;28;20414;-76
2022/06/08 01:37:58;;;;;;;0.10;0.10;;;19.20;99.90;;;;;;5050481;28;20053;-75
2022/06/08 01:41:08;;;;;;;0.10;0.10;;;19.20;99.90;;;;;;5045022;28;20049;-76
2022/06/08 01:43:47;;;;;;;0.40;0.40;;;19.30;99.90;;;;;;5040688;28;20068;-77
2022/06/08 01:46:23;;;;;;;0.47;0.47;;;19.20;99.90;;;;;;5049695;28;20051;-75
2022/06/08 01:49:05;;;;;;;1.75;1.65;;;19.20;99.90;;;;;;5041374;28;20053;-76
2022/06/08 01:51:47;;;;;;;0.30;0.30;;;19.10;99.90;;;;;;5042213;28;20041;-76
2022/06/08 01:54:29;;;;;;;0.32;0.25;;;19.10;99.90;;;;;;5047308;28;20045;-76
2022/06/08 01:57:09;;;;;;;0.73;0.38;;;19.10;99.90;;;;;;5051095;28;20068;-76
2022/06/08 01:59:46;;;;;;;0.32;0.32;;;19.00;99.90;;;;;;5052955;28;20045;-75
2022/06/08 02:02:26;;;;;;;0.52;0.52;;;19.00;99.90;;;;;;5054558;28;20048;-77
2022/06/08 02:05:00;;;;;;;5.13;0.90;;;19.00;99.90;;;;;;5051644;28;20051;-76
2022/06/08 02:07:34;;;;;;;0.47;0.43;;;19.10;99.90;;;;;;5049278;28;20049;-76
2022/06/08 02:10:13;;;;;;;1.13;0.75;;;19.00;99.90;;;;;;5048206;28;20059;-76
2022/06/08 02:12:47;;;;;;;0.45;0.45;;;19.00;99.90;;;;;;5044907;28;20099;-76
2022/06/08 02:15:19;;;;;;;3.22;1.13;;;19.00;99.90;;;;;;5046135;28;20456;-76
2022/06/08 02:17:53;;;;;;;0.88;0.60;;;19.00;99.90;;;;;;5044847;28;20041;-76
2022/06/08 02:20:31;;;;;;;0.90;0.90;;;18.90;99.90;;;;;;5042124;28;20121;-76
2022/06/08 02:23:08;;;;;;;0.20;0.20;;;18.90;99.90;;;;;;5045388;28;20056;-75
2022/06/08 02:25:43;;;;;;;1.83;0.80;;;18.80;99.90;;;;;;5047874;28;20041;-76
2022/06/08 02:28:16;;;;;;;0.10;0.10;;;18.80;99.90;;;;;;5045955;28;20072;-75
2022/06/08 02:30:50;;;;;;;0.20;0.20;;;18.70;99.90;;;;;;5041757;28;20050;-75
2022/06/08 02:36:14;;;;;;;0.68;0.68;;;18.70;99.90;;;;;;5040825;28;20408;-76
2022/06/08 02:38:49;;;;;;;1.30;0.97;;;18.60;99.90;;;;;;5039944;28;20599;-76
2022/06/08 02:41:20;;;;;;;0.10;0.10;;;18.60;99.90;;;;;;5040973;28;20299;-78
2022/06/08 02:43:54;;;;;;;0.47;0.47;;;18.60;99.90;;;;;;5040197;28;20069;-76
2022/06/08 02:46:33;;;;;;;0.75;0.70;;;18.50;99.90;;;;;;5040131;28;20041;-75
2022/06/08 02:49:04;;;;;;;;;;;18.50;99.90;;;;;;5039259;28;20069;-76
2022/06/08 02:51:33;;;;;;;0.90;0.75;;;18.50;99.90;;;;;;5038256;28;20380;-76
2022/06/08 02:54:04;;;;;;;0.38;0.38;;;18.40;99.90;;;;;;5038064;28;20057;-75
2022/06/08 02:57:03;;;;;;;1.40;1.30;;;18.30;99.90;;;;;;5037474;28;20056;-76
2022/06/08 02:59:40;;;;;;;0.25;0.25;;;18.20;99.90;;;;;;5023162;28;20441;-75
2022/06/08 03:02:14;;;;;;;1.02;0.93;;;18.20;99.90;;;;;;5038071;28;20073;-76
2022/06/08 03:04:48;;;;;;;0.30;0.30;;;18.20;99.90;;;;;;5036792;28;20041;-76
2022/06/08 03:07:20;;;;;;;0.68;0.35;;;18.20;99.90;;;;;;5035152;28;20496;-76
2022/06/08 03:09:49;;;;;;;0.93;0.93;;;18.20;99.90;;;;;;5036004;28;20084;-76
2022/06/08 03:12:26;;;;;;;0.65;0.65;;;18.20;99.90;;;;;;5034272;28;20053;-75
2022/06/08 03:14:54;;;;;;;0.20;0.20;;;18.10;99.90;;;;;;5030051;28;20567;-76
2022/06/08 03:17:27;;;;;;;0.80;0.80;;;18.10;99.90;;;;;;5035299;28;20052;-76
2022/06/08 03:19:55;;;;;;;1.25;0.90;;;18.20;99.90;;;;;;5035669;28;20103;-76
2022/06/08 03:22:23;;;;;;;0.40;0.40;;;18.20;99.90;;;;;;5035645;28;20053;-76
2022/06/08 03:24:50;;;;;;;0.28;0.28;;;18.20;99.90;;;;;;5034878;28;20042;-75
2022/06/08 03:27:21;;;;;;;0.20;0.20;;;18.30;99.90;;;;;;5035057;28;20408;-76
2022/06/08 03:29:53;;;;;;;0.40;0.40;;;18.30;99.90;;;;;;5035430;28;20099;-75
2022/06/08 03:32:21;;;;;;;0.98;0.55;;;18.40;99.90;;;;;;5035385;28;20164;-76
2022/06/08 03:34:48;;;;;;;0.20;0.20;;;18.40;99.90;;;;;;5034683;28;20045;-76
2022/06/08 03:37:18;;;;;;;0.57;0.57;;;18.30;99.90;;;;;;5035611;28;20045;-75
2022/06/08 03:39:50;;;;;;;0.70;0.32;;;18.30;99.90;;;;;;5035160;28;20111;-76
2022/06/08 03:42:18;;;;;;;0.40;0.40;;;18.40;99.90;;;;;;5036004;28;20049;-75
2022/06/08 03:44:47;;;;;;;1.08;0.98;;;18.30;99.90;;;;;;5037141;28;20046;-75
2022/06/08 03:47:17;;;;;;;2.92;0.98;;;18.40;99.90;;;;;;5037392;28;20471;-76
2022/06/08 03:49:45;;;;;;;0.20;0.20;;;18.40;99.90;;;;;;5036321;28;20046;-75
2022/06/08 03:52:17;;;;;;;0.50;0.50;;;18.40;99.90;;;;;;5037000;28;20516;-75
2022/06/08 03:54:49;;;;;;;15.77;0.90;;;18.50;99.90;;;;;;5035751;28;20056;-76
2022/06/08 03:57:19;;;;;;;1.10;0.65;;;18.60;99.90;;;;;;5035279;28;20100;-76
2022/06/08 03:59:51;;;;;;;0.35;0.35;;;18.60;99.90;;;;;;5036710;28;20216;-76
2022/06/08 04:02:20;;;;;;;0.30;0.30;;;18.70;99.90;;;;;;5036455;28;20095;-75
2022/06/08 04:04:50;;;;;;;4.68;2.25;;;18.70;99.90;;;;;;5035885;28;20381;-75
2022/06/08 04:07:18;;;;;;;1.08;0.98;;;18.70;99.90;;;;;;5034942;28;20056;-75
2022/06/08 04:09:53;;;;;;;0.38;0.38;;;18.80;99.90;;;;;;5032747;28;20084;-75
2022/06/08 04:12:32;;;;;;;1.77;1.08;;;18.80;99.90;;;;;;5037381;28;20068;-75
2022/06/08 04:15:03;;;;;;;0.30;0.30;;;18.80;99.90;;;;;;5042429;28;20093;-77
2022/06/08 04:17:31;;;;;;;0.80;0.80;;;18.80;99.90;;;;;;5051758;28;20117;-78
2022/06/08 04:19:59;;;;;;;1.20;0.73;;;18.90;99.90;;;;;;5045781;28;20049;-76
2022/06/08 04:22:31;;;;;;;2.17;0.55;;;18.80;99.90;;;;;;5038211;28;20049;-77
2022/06/08 04:24:59;;;;;;;1.58;1.25;;;18.80;99.90;;;;;;5035590;28;20058;-76
2022/06/08 04:27:27;;;;;;;0.75;0.68;;;18.80;99.90;;;;;;5035109;28;20141;-76
2022/06/08 04:29:55;;;;;;;0.10;0.10;;;18.70;99.90;;;;;;5035935;28;20068;-78
2022/06/08 04:32:25;;;;;;;0.05;0.05;;;18.80;99.90;;;;;;5035684;28;20048;-77
2022/06/08 04:34:53;;;;;;;0.73;0.73;;;18.80;99.90;;;;;;5034468;28;20573;-77
2022/06/08 04:37:23;;;;;;;1.65;1.33;;;18.80;99.90;;;;;;5035344;28;20076;-76
2022/06/08 04:39:53;;;;;;;0.65;0.38;;;18.90;99.90;;;;;;5035982;28;20663;-76
2022/06/08 04:42:21;;;;;;;0.45;0.45;;;18.90;99.90;;;;;;5036789;28;20118;-76
2022/06/08 04:44:48;;;;;;;0.50;0.50;;;18.80;99.90;;;;;;5034825;28;20455;-78
2022/06/08 04:47:20;;;;;;;1.38;1.27;;;18.90;99.90;;;;;;5034854;28;20108;-76
2022/06/08 04:49:50;;;;;;;0.43;0.43;;;18.70;99.90;;;;;;5034052;28;20050;-76
2022/06/08 04:52:18;;;;;;;0.40;0.40;;;18.60;99.90;;;;;;5033847;28;20046;-75
2022/06/08 04:54:46;;;;;;;0.05;0.05;;;18.50;99.90;;;;;;5029496;28;20050;-79
2022/06/08 04:57:14;;;;;;;0.55;0.35;;;18.40;99.90;;;;;;5019770;28;20048;-74
2022/06/08 04:59:44;;;;;;;0.68;0.40;;;18.30;99.90;;;;;;5033354;28;20057;-77
2022/06/08 05:02:42;;;;;;;0.15;0.15;;;18.10;99.90;;;;;;5030177;28;20080;-78
2022/06/08 05:05:15;;;;;;;0.00;0.00;;;17.90;99.90;;;;;;5014336;28;20073;-77
2022/06/08 05:07:43;;;;;;;0.05;0.05;;;17.60;99.90;;;;;;5028960;28;20080;-78
2022/06/08 05:10:12;;;;;;;0.00;0.00;;;17.30;99.90;;;;;;5034641;28;20059;-78
2022/06/08 05:12:42;;;;;;;0.00;0.00;;;17.10;99.90;;;;;;5033780;28;20053;-78
2022/06/08 05:15:14;;;;;;;0.10;0.10;;;17.00;99.90;;;;;;5033696;22;20050;-79
2022/06/08 05:17:42;;;;;;;0.03;0.03;;;17.00;99.90;;;;;;5020036;28;20403;-77
2022/06/08 05:20:14;;;;;;;0.28;0.28;;;16.90;99.90;;;;;;5018210;28;20057;-79
2022/06/08 05:22:43;;;;;;;0.13;0.13;;;16.90;99.90;;;;;;4999924;28;20052;-78
2022/06/08 05:25:14;;;;;;;0.10;0.10;;;17.00;99.90;;;;;;5020104;28;20041;-78
2022/06/08 05:27:41;;;;;;;0.00;0.00;;;17.00;99.90;;;;;;5021926;28;20050;-76
2022/06/08 05:30:12;;;;;;;0.05;0.05;;;17.20;99.90;;;;;;5034223;28;20082;-78
2022/06/08 05:32:41;;;;;;;0.05;0.05;;;17.20;99.90;;;;;;5060414;28;20041;-78
2022/06/08 05:35:09;;;;;;;0.57;0.45;;;17.30;99.90;;;;;;5044828;28;20045;-78
2022/06/08 05:37:39;;;;;;;0.00;0.00;;;17.30;99.90;;;;;;5046154;28;20087;-77
2022/06/08 05:40:09;;;;;;;3.15;1.35;;;17.40;99.90;;;;;;5041002;28;20076;-78
2022/06/08 05:42:36;;;;;;;0.05;0.05;;;17.30;99.90;;;;;;5045623;28;20139;-80
2022/06/08 05:45:06;;;;;;;0.45;0.38;;;17.40;99.90;;;;;;5053824;28;20046;-79
2022/06/08 05:47:34;;;;;;;0.13;0.13;;;17.20;99.90;;;;;;5041772;28;20062;-80
2022/06/08 05:50:01;;;;;;;0.20;0.20;;;17.20;99.90;;;;;;5039991;28;20057;-79
2022/06/08 05:52:30;;;;;;;0.17;0.17;;;17.10;99.90;;;;;;5040483;28;20053;-78
2022/06/08 05:54:59;;;;;;;0.00;0.00;;;17.20;99.90;;;;;;5040243;28;20050;-80
2022/06/08 05:57:26;;;;;;;0.60;0.55;;;17.20;99.90;;;;;;5040242;28;20109;-80
2022/06/08 05:59:54;;;;;;;0.20;0.20;;;17.20;99.90;;;;;;5039771;28;20046;-79
2022/06/08 06:02:22;;;;;;;0.15;0.10;;;17.20;99.90;;;;;;5040152;28;20049;-80
2022/06/08 06:04:50;;;;;;;0.20;0.20;;;17.20;99.90;;;;;;5038028;28;20069;-78
2022/06/08 06:07:20;;;;;;;0.25;0.25;;;17.30;99.90;;;;;;5039219;28;20136;-78
2022/06/08 06:10:02;;;;;;;0.00;0.00;;;17.30;99.90;;;;;;5042279;28;20072;-79
2022/06/08 06:12:32;;;;;;;0.95;0.73;;;17.30;99.90;;;;;;5039491;28;20053;-79
2022/06/08 06:15:01;;;;;;;1.20;1.13;;;17.30;99.90;;;;;;5037652;28;20078;-78
2022/06/08 06:17:28;;;;;;;0.85;0.85;;;17.30;99.90;;;;;;5037684;28;20104;-80
2022/06/08 06:19:58;;;;;;;1.48;0.77;;;17.30;99.90;;;;;;5038246;28;20057;-77
2022/06/08 06:22:40;;;;;;;1.15;0.85;;;17.40;99.90;;;;;;5035924;28;20109;-79
2022/06/08 06:25:29;;;;;;;6.30;2.03;;;17.40;99.90;;;;;;5036722;28;20049;-78
2022/06/08 06:28:25;;;;;;;1.27;1.23;;;17.40;99.90;;;;;;5040624;28;20069;-79
2022/06/08 06:31:23;;;;;;;0.50;0.50;;;17.20;99.90;;;;;;5041248;28;20077;-79
2022/06/08 06:34:00;;;;;;;0.95;0.93;;;17.20;99.90;;;;;;5037550;28;20056;-77
2022/06/08 06:36:29;;;;;;;0.55;0.55;;;17.20;99.90;;;;;;5037407;28;20049;-79
2022/06/08 06:39:00;;;;;;;0.93;0.93;;;17.10;99.90;;;;;;5035345;28;20535;-77
2022/06/08 06:41:30;;;;;;;1.90;1.70;;;17.20;99.90;;;;;;5036762;28;20079;-79
2022/06/08 06:43:58;;;;;;;1.35;1.25;;;17.30;99.90;;;;;;5038864;28;20053;-78
2022/06/08 06:46:44;;;;;;;1.45;1.35;;;17.30;99.90;;;;;;5039568;28;20056;-78
2022/06/08 06:49:19;;;;;;;1.88;1.77;;;17.40;99.90;;;;;;5038140;28;20128;-78
2022/06/08 06:51:50;;;;;;;1.75;1.65;;;17.70;99.90;;;;;;5040498;28;20056;-80
2022/06/08 06:54:18;;;;;;;1.70;1.23;;;18.10;99.90;;;;;;5038623;28;20508;-77
2022/06/08 06:56:49;;;;;;;0.77;0.68;;;18.40;99.90;;;;;;5037153;28;20052;-77
2022/06/08 06:59:21;;;;;;;0.28;0.28;;;18.40;99.90;;;;;;5036319;28;20046;-77
2022/06/08 07:01:49;;;;;;;0.55;0.25;;;18.40;99.90;;;;;;5036119;28;20052;-78
2022/06/08 07:04:19;;;;;;;0.65;0.65;;;18.30;99.90;;;;;;5036080;28;20133;-77
2022/06/08 07:06:47;;;;;;;0.47;0.47;;;18.20;99.90;;;;;;5035889;28;20073;-77
2022/06/08 07:09:16;;;;;;;7.15;1.65;;;18.50;99.90;;;;;;5035659;28;20428;-78
2022/06/08 07:11:46;;;;;;;2.55;1.65;;;18.60;99.90;;;;;;5035715;28;20065;-78
2022/06/08 07:14:28;;;;;;;0.08;0.08;;;18.80;99.90;;;;;;5035217;28;20049;-77
2022/06/08 07:17:02;;;;;;;0.47;0.47;;;18.80;99.90;;;;;;5035493;28;20060;-77
2022/06/08 07:19:33;;;;;;;1.30;1.23;;;18.80;99.90;;;;;;5035722;28;20126;-76
2022/06/08 07:22:00;;;;;;;0.43;0.43;;;18.80;99.90;;;;;;5035000;28;20073;-77
2022/06/08 07:24:33;;;;;;;3.38;1.58;;;18.90;99.90;;;;;;5036055;28;20042;-77
2022/06/08 07:27:01;;;;;;;0.85;0.82;;;19.00;99.90;;;;;;5036981;28;20048;-78
2022/06/08 07:29:30;;;;;;;1.60;1.45;;;19.10;99.90;;;;;;5036166;28;20115;-77
2022/06/08 07:31:58;;;;;;;0.60;0.60;;;19.30;99.90;;;;;;5035019;28;20096;-77
2022/06/08 07:34:25;;;;;;;0.65;0.45;;;19.20;99.90;;;;;;5036909;28;20052;-77
2022/06/08 07:36:52;;;;;;;0.52;0.52;;;19.20;99.90;;;;;;5036367;28;20128;-77
2022/06/08 07:39:21;;;;;;;2.65;1.27;;;19.20;99.90;;;;;;5036554;28;20103;-77
2022/06/08 07:41:49;;;;;;;0.93;0.85;;;19.10;99.90;;;;;;5037194;28;20038;-77
2022/06/08 07:44:17;;;;;;;0.60;0.60;;;19.00;99.90;;;;;;5035979;28;20045;-76
2022/06/08 07:46:47;;;;;;;4.10;1.50;;;19.10;99.90;;;;;;5036719;28;20041;-77
2022/06/08 07:52:01;;;;;;;0.68;0.68;;;19.80;99.90;;;;;;5037484;28;20041;-78
2022/06/08 07:54:30;;;;;;;0.98;0.95;;;20.20;99.90;;;;;;5034903;28;20445;-77
2022/06/08 07:56:58;;;;;;;2.05;1.45;;;20.50;99.90;;;;;;5034708;28;20118;-77
2022/06/08 07:59:29;;;;;;;0.45;0.45;;;20.50;99.90;;;;;;5035876;28;20041;-77
2022/06/08 08:01:58;;;;;;;1.33;0.95;;;20.50;99.90;;;;;;5036636;28;20103;-77
2022/06/08 08:04:26;;;;;;;1.13;1.08;;;20.30;99.90;;;;;;5036397;28;20048;-78
2022/06/08 08:06:53;;;;;;;0.00;0.00;;;20.20;99.90;;;;;;5036092;28;20149;-77
2022/06/08 08:09:22;;;;;;;0.35;0.22;;;20.10;99.90;;;;;;5037286;28;20086;-77
2022/06/08 08:11:51;;;;;;;0.13;0.13;;;20.00;99.90;;;;;;5037499;28;20389;-77
2022/06/08 08:14:19;;;;;;;0.40;0.40;;;20.00;99.90;;;;;;5039438;28;20120;-77
2022/06/08 08:16:47;;;;;;;0.75;0.63;;;20.00;99.90;;;;;;5042668;28;20053;-78
2022/06/08 08:19:18;;;;;;;0.32;0.32;;;20.20;99.90;;;;;;5042868;28;20091;-77
2022/06/08 08:21:46;;;;;;;0.30;0.30;;;20.20;99.90;;;;;;5045141;28;20049;-77
2022/06/08 08:24:14;;;;;;;0.60;0.60;;;20.40;99.90;;;;;;5047232;28;20068;-78
2022/06/08 08:26:43;;;;;;;0.20;0.20;;;20.50;99.90;;;;;;5041064;28;20570;-77
2022/06/08 08:29:11;;;;;;;0.43;0.43;;;20.60;99.90;;;;;;5035754;28;20083;-77
2022/06/08 08:31:39;;;;;;;1.35;0.57;;;20.70;99.90;;;;;;5036637;28;20463;-78
2022/06/08 08:34:06;;;;;;;1.85;1.15;;;20.90;99.90;;;;;;5037166;28;20080;-77
2022/06/08 08:36:35;;;;;;;0.10;0.10;;;20.90;99.90;;;;;;5035356;28;20048;-78
2022/06/08 08:39:02;;;;;;;0.28;0.28;;;21.20;99.90;;;;;;5037313;28;20580;-77
2022/06/08 08:44:30;;;;;;;0.00;0.00;;;21.50;99.90;;;;;;5036505;28;20132;-78
2022/06/08 08:47:08;;;;;;;1.75;0.32;;;21.50;99.90;;;;;;5037588;28;20041;-78
2022/06/08 08:49:39;;;;;;;0.03;0.03;;;21.40;99.90;;;;;;5037273;28;20519;-79
2022/06/08 08:52:19;;;;;;;0.45;0.45;;;21.60;99.90;;;;;;5036966;28;20505;-78
2022/06/08 08:54:53;;;;;;;0.40;0.40;;;21.80;99.90;;;;;;5035624;28;20073;-76
2022/06/08 08:57:24;;;;;;;0.03;0.03;;;21.80;99.90;;;;;;5035114;28;20100;-77
2022/06/08 08:59:52;;;;;;;0.20;0.20;;;21.70;99.90;;;;;;5036020;28;20045;-77
2022/06/08 09:05:11;;;;;;;0.00;0.00;;;21.50;99.90;;;;;;5034362;28;20067;-79
2022/06/08 09:07:40;;;;;;;0.15;0.15;;;21.50;99.90;;;;;;5035490;28;20065;-76
2022/06/08 09:10:11;;;;;;;0.63;0.63;;;21.50;99.90;;;;;;5037894;28;20056;-78
2022/06/08 09:12:38;;;;;;;0.20;0.20;;;21.70;99.90;;;;;;5037941;28;20046;-78
2022/06/08 09:15:07;;;;;;;0.00;0.00;;;21.80;99.90;;;;;;5036284;28;20183;-77
2022/06/08 09:17:37;;;;;;;0.77;0.70;;;21.90;99.90;;;;;;5036441;28;20050;-78
2022/06/08 09:20:23;;;;;;;0.52;0.28;;;22.00;99.90;;;;;;5036114;28;20045;-78
2022/06/08 09:22:55;;;;;;;0.20;0.20;;;22.30;99.90;;;;;;5036659;28;20353;-78
2022/06/08 09:25:29;;;;;;;0.10;0.10;;;22.80;99.90;;;;;;5037326;28;20064;-78
2022/06/08 09:27:59;;;;;;;0.30;0.30;;;22.60;99.90;;;;;;5036618;28;20400;-78
2022/06/08 09:30:29;;;;;;;0.20;0.20;;;22.20;99.90;;;;;;5037197;28;20450;-77
2022/06/08 09:32:59;;;;;;;0.10;0.10;;;22.50;99.90;;;;;;5034853;28;20071;-78
2022/06/08 09:35:34;;;;;;;0.43;0.43;;;23.00;99.90;;;;;;5036531;28;20041;-78
2022/06/08 09:38:07;;;;;;;0.57;0.22;;;23.40;99.90;;;;;;5037778;28;20053;-78
2022/06/08 09:40:44;;;;;;;0.10;0.10;;;23.40;99.90;;;;;;5041841;28;20053;-78
2022/06/08 09:43:20;;;;;;;;;;;23.70;99.90;;;;;;5053927;28;20050;-77
2022/06/08 09:45:53;;;;;;;0.10;0.10;;;23.90;99.90;;;;;;5055827;28;19981;-77
2022/06/08 09:51:46;;;;;;;0.43;0.32;;;24.80;99.90;;;;;;5035144;28;20056;-78
2022/06/08 09:54:23;;;;;;;0.52;0.52;;;25.10;99.90;;;;;;5038959;28;20049;-78
2022/06/08 09:57:07;;;;;;;1.25;0.85;;;24.90;99.90;;;;;;5040442;28;20054;-78
2022/06/08 09:59:54;;;;;;;0.28;0.28;;;25.10;99.90;;;;;;5036620;28;20061;-77
2022/06/08 10:02:39;;;;;;;0.10;0.10;;;25.20;99.90;;;;;;5037669;28;20551;-77
2022/06/08 10:05:23;;;;;;;0.10;0.10;;;25.20;99.90;;;;;;5038820;28;20041;-78
2022/06/08 10:08:00;;;;;;;1.70;0.20;;;24.30;99.90;;;;;;5036655;28;20033;-79
2022/06/08 10:10:34;;;;;;;1.02;1.00;;;24.30;99.90;;;;;;5037364;28;20049;-79
2022/06/08 10:13:09;;;;;;;0.22;0.22;;;24.60;99.90;;;;;;5035392;28;20045;-77
2022/06/08 10:15:43;;;;;;;0.20;0.20;;;25.00;99.90;;;;;;5037483;28;20451;-78
2022/06/08 10:18:17;;;;;;;0.22;0.22;;;24.60;99.90;;;;;;5039637;28;20048;-77
2022/06/08 10:20:51;;;;;;;0.25;0.25;;;24.20;99.90;;;;;;5041389;28;20053;-77
2022/06/08 10:23:37;;;;;;;0.10;0.10;;;23.40;99.90;;;;;;5039845;28;20460;-77
2022/06/08 10:26:14;;;;;;;0.10;0.10;;;23.20;99.90;;;;;;5040269;28;20452;-78
2022/06/08 10:28:46;;;;;;;0.30;0.25;;;23.20;99.90;;;;;;5039942;28;20465;-77
2022/06/08 10:31:19;;;;;;;0.15;0.15;;;23.40;99.90;;;;;;5035068;28;20072;-78
2022/06/08 10:33:53;;;;;;;0.20;0.20;;;23.80;99.90;;;;;;5020349;28;20050;-78
2022/06/08 10:36:22;;;;;;;0.25;0.15;;;24.00;99.90;;;;;;5019208;28;20049;-77
2022/06/08 10:38:49;;;;;;;0.20;0.20;;;24.20;99.90;;;;;;5018792;28;20038;-78
2022/06/08 10:44:32;;;;;;;0.28;0.28;;;24.60;99.90;;;;;;5018603;28;20125;-79
2022/06/08 10:47:18;;;;;;;0.10;0.10;;;25.10;99.90;;;;;;5020042;28;20045;-77
2022/06/08 10:49:52;;;;;;;0.10;0.10;;;25.80;99.90;;;;;;5021734;28;20046;-78
2022/06/08 10:52:31;;;;;;;0.10;0.10;;;26.20;99.90;;;;;;5017754;28;20100;-77
2022/06/08 10:55:31;;;;;;;1.08;0.98;;;26.10;99.90;;;;;;5017944;28;20068;-77
2022/06/08 10:58:47;;;;;;;0.22;0.22;;;26.30;99.90;;;;;;5019145;28;20477;-77
2022/06/08 11:01:31;;;;;;;0.08;0.08;;;26.70;99.90;;;;;;5009728;28;20041;-77
2022/06/08 11:04:00;;;;;;;0.10;0.05;;;26.60;99.90;;;;;;5040321;28;20376;-78
2022/06/08 11:07:04;;;;;;;0.30;0.30;;;26.30;99.90;;;;;;5040213;28;20048;-78
2022/06/08 11:09:56;;;;;;;0.10;0.10;;;26.00;99.90;;;;;;5031662;28;20087;-77
2022/06/08 11:12:47;;;;;;;0.30;0.30;;;26.00;99.90;;;;;;5037137;28;20053;-77
2022/06/08 11:15:37;;;;;;;0.35;0.32;;;26.30;99.90;;;;;;5055675;22;20411;-76
2022/06/08 11:18:15;;;;;;;0.10;0.10;;;26.80;99.90;;;;;;5029727;28;20164;-77
2022/06/08 11:20:47;;;;;;;0.17;0.17;;;27.30;99.90;;;;;;5037376;28;20488;-77
2022/06/08 11:23:20;;;;;;;0.10;0.10;;;26.90;99.90;;;;;;5026348;28;20049;-77
2022/06/08 11:25:52;;;;;;;1.13;0.35;;;26.90;99.90;;;;;;5034189;28;20077;-77
2022/06/08 11:28:32;;;;;;;0.10;0.10;;;26.60;99.90;;;;;;5039548;28;20493;-75
2022/06/08 11:31:03;;;;;;;8.20;0.45;;;26.70;99.90;;;;;;5037302;28;20041;-77
2022/06/08 11:33:56;;;;;;;0.10;0.10;;;26.80;99.90;;;;;;5036925;28;20049;-76
2022/06/08 11:37:00;;;;;;;1.35;0.38;;;26.80;99.90;;;;;;5036498;28;20076;-77
2022/06/08 11:39:34;;;;;;;0.10;0.10;;;26.50;99.90;;;;;;5030683;28;20072;-77
2022/06/08 11:42:16;;;;;;;0.25;0.25;;;26.90;99.90;;;;;;5018333;28;20048;-77
2022/06/08 11:44:52;;;;;;;0.10;0.10;;;27.20;99.90;;;;;;5029714;28;20069;-79
2022/06/08 11:47:27;;;;;;;4.15;2.10;;;27.20;99.90;;;;;;5037240;28;20049;-78
2022/06/08 11:50:03;;;;;;;29.67;17.92;;;27.10;99.90;;;;;;5036685;28;20077;-78
2022/06/08 11:52:36;;;;;;;3.08;2.00;;;27.10;99.90;;;;;;5036316;28;20045;-78
2022/06/08 11:55:22;;;;;;;3.53;2.20;;;27.00;99.90;;;;;;5040862;28;20045;-78
2022/06/08 11:57:54;;;;;;;2.83;1.63;;;26.90;99.90;;;;;;5037324;28;20051;-78
2022/06/08 12:00:31;;;;;;;2.80;1.63;;;26.80;99.90;;;;;;5037274;28;20084;-78
2022/06/08 12:03:04;;;;;;;5.45;2.00;;;26.80;99.90;;;;;;5038294;28;20124;-79
2022/06/08 12:05:33;;;;;;;8.25;1.70;;;26.80;99.90;;;;;;5055316;28;20047;-78
2022/06/08 12:08:08;;;;;;;4.43;1.92;;;26.70;99.90;;;;;;5056078;28;20517;-78
2022/06/08 12:10:37;;;;;;;6.68;3.33;;;26.30;99.90;;;;;;5055916;28;20045;-79
2022/06/08 12:13:05;;;;;;;3.30;2.25;;;26.30;99.90;;;;;;5049815;28;20106;-78
2022/06/08 12:15:48;;;;;;;3.83;1.45;;;26.00;99.90;;;;;;5021912;28;20057;-78
2022/06/08 12:18:39;;;;;;;3.67;1.85;;;25.40;99.90;;;;;;5015607;28;20149;-77
2022/06/08 12:21:20;;;;;;;5.93;2.17;;;25.20;99.90;;;;;;5015226;28;20042;-78
2022/06/08 12:23:59;;;;;;;2.83;1.67;;;24.90;99.90;;;;;;5013980;28;20560;-77
2022/06/08 12:26:36;;;;;;;2.67;1.50;;;24.80;99.90;;;;;;5019302;28;20042;-77
2022/06/08 12:29:23;;;;;;;4.30;1.70;;;24.90;99.90;;;;;;5034175;28;20064;-78
2022/06/08 12:32:00;;;;;;;3.72;2.05;;;25.00;99.90;;;;;;5035457;28;20046;-77
2022/06/08 12:34:36;;;;;;;3.53;1.88;;;24.50;99.90;;;;;;5034704;28;20041;-77
2022/06/08 12:37:34;;;;;;;4.32;3.53;;;24.70;99.90;;;;;;5035526;28;20050;-77
2022/06/08 12:40:22;;;;;;;6.70;3.60;;;24.90;99.90;;;;;;5034389;28;20501;-76
2022/06/08 12:42:51;;;;;;;6.22;3.00;;;25.20;99.90;;;;;;5035286;28;20041;-76
2022/06/08 12:45:27;;;;;;;4.00;3.13;;;25.40;99.90;;;;;;5035979;28;20053;-76
2022/06/08 12:47:55;;;;;;;12.48;6.57;;;25.40;99.90;;;;;;5034402;28;20049;-76
2022/06/08 12:50:26;;;;;;;9.80;6.43;;;25.40;99.90;;;;;;5035269;28;20033;-77
2022/06/08 12:52:53;;;;;;;7.88;4.10;;;25.20;99.90;;;;;;5034457;28;20049;-75
2022/06/08 12:55:23;;;;;;;6.93;3.13;;;24.80;99.90;;;;;;5034993;28;20484;-77
2022/06/08 12:57:51;;;;;;;6.82;3.30;;;24.60;99.90;;;;;;5034954;28;20048;-77
2022/06/08 13:00:22;;;;;;;9.98;4.68;;;24.30;99.90;;;;;;5034303;28;20038;-77
2022/06/08 13:02:51;;;;;;;6.00;3.72;;;24.20;99.90;;;;;;5032854;28;20460;-77
2022/06/08 13:05:23;;;;;;;8.55;4.40;;;24.10;99.90;;;;;;5033857;28;20030;-77
2022/06/08 13:07:54;;;;;;;5.53;4.35;;;23.90;99.90;;;;;;5034257;28;20040;-76
2022/06/08 13:10:22;;;;;;;25.98;10.38;;;23.60;99.90;;;;;;5035111;28;20072;-75
2022/06/08 13:12:54;;;;;;;19.92;9.80;;;23.50;99.90;;;;;;5034626;28;20042;-75
2022/06/08 13:15:24;;;;;;;16.60;8.48;;;23.50;99.90;;;;;;5033141;28;20140;-76
2022/06/08 13:17:52;;;;;;;9.52;6.45;;;23.50;99.90;;;;;;5034603;28;20049;-76
2022/06/08 13:20:21;;;;;;;10.13;7.57;;;23.60;99.90;;;;;;5033174;28;20037;-76
2022/06/08 13:22:50;;;;;;;10.68;6.88;;;23.70;99.90;;;;;;5033879;28;20415;-77
2022/06/08 13:25:20;;;;;;;10.95;5.13;;;23.60;99.90;;;;;;5034342;28;20056;-76
2022/06/08 13:27:48;;;;;;;7.72;4.60;;;23.70;99.90;;;;;;5034173;28;20554;-77
2022/06/08 13:30:19;;;;;;;12.25;5.00;;;23.60;99.90;;;;;;5034561;28;20103;-77
2022/06/08 13:32:48;;;;;;;9.95;6.60;;;23.70;99.90;;;;;;5034118;28;20447;-76
2022/06/08 13:35:15;;;;;;;9.85;7.18;;;23.60;99.90;;;;;;5033996;28;20050;-77
2022/06/08 13:37:44;;;;;;;9.98;6.57;;;23.50;99.90;;;;;;5032600;28;20049;-76